»·PEaware :: SWA549 KLAS-KSNA

SWA549 :: KLAS-KSNA

FLIGHT INFORMATION

Flight Status: Arrived
Operator:
Southwest Airlines
More flights by this operator :: More flights under this callsign
Pilot: Dane N. (4459)
Aircraft: BOEING 737-300
(B733)
More flights by this aircraft type
Origin: KLAS McCarran Intl
United States
Destination: KSNA John Wayne-Orange Co
United States
More flights between these airports :: More routes between these airports
Route: +BOACH8 WHIGG FEYLA DSNEE4
File this flight plan on PilotEdge
Remarks:
Altitude:
(Current/Filed)
26,000ft
Speed:
(Current/Filed)
297kts
Departed: 25-Mar-20 09:06 PM
Arrived: 25-Mar-20 09:53 PM
Distance/Time
Traveled:
197nm/0:47
Distance/Time
To Go:
Arrived

Flight Plot

Page will automatically refresh every two minutes.

Flight plan parsing failed; only flown route is shown


Map Options




Map Legend


Flown Route
Filed Route
Departure Airport
Arrival Airport
Navaid (VOR, NDB)
Fix

Horizontal Profiles

Position Reports

Time Latitude Longitude Heading Altitude Ground
Speed
25-Mar-20 20:45 36.079941 -115.147091 57 2095ft 0kts
25-Mar-20 20:46 36.079941 -115.147091 57 2095ft 0kts
25-Mar-20 20:47 36.079941 -115.147091 57 2095ft 0kts
25-Mar-20 20:48 36.079941 -115.147091 57 2095ft 0kts
25-Mar-20 20:49 36.079941 -115.147091 57 2095ft 0kts
25-Mar-20 20:50 36.079941 -115.147091 57 2095ft 0kts
25-Mar-20 20:51 36.079941 -115.147091 57 2095ft 0kts
25-Mar-20 20:52 36.079941 -115.147091 57 2095ft 0kts
25-Mar-20 20:53 36.079941 -115.147091 57 2095ft 0kts
25-Mar-20 20:54 36.079900 -115.147249 61 2096ft 1kts
25-Mar-20 20:55 36.079806 -115.147802 155 2099ft 1kts
25-Mar-20 20:56 36.079869 -115.147831 155 2099ft 0kts
25-Mar-20 20:57 36.079869 -115.147831 155 2099ft 0kts
25-Mar-20 20:58 36.079869 -115.147831 155 2099ft 0kts
25-Mar-20 20:59 36.079717 -115.147745 155 2099ft 3kts
25-Mar-20 21:00 36.078207 -115.142839 93 2086ft 31kts
25-Mar-20 21:01 36.078240 -115.132030 90 2055ft 31kts
25-Mar-20 21:02 36.077554 -115.121684 131 2036ft 1kts
25-Mar-20 21:03 36.077549 -115.121677 131 2036ft 0kts
25-Mar-20 21:04 36.076403 -115.121641 260 2038ft 0kts
25-Mar-20 21:05 36.076644 -115.161574 267 2657ft 201kts
25-Mar-20 21:06 36.074998 -115.234732 247 4336ft 225kts
25-Mar-20 21:07 36.023204 -115.276994 203 6067ft 248kts
25-Mar-20 21:08 35.956008 -115.303443 189 9148ft 261kts
25-Mar-20 21:09 35.884124 -115.311933 188 11082ft 301kts
25-Mar-20 21:10 35.798989 -115.308406 179 14112ft 309kts
25-Mar-20 21:11 35.713046 -115.298630 182 16873ft 311kts
25-Mar-20 21:12 35.641482 -115.343999 225 19371ft 300kts
25-Mar-20 21:13 35.584909 -115.420245 226 21701ft 301kts
25-Mar-20 21:14 35.526657 -115.498511 226 23048ft 325kts
25-Mar-20 21:15 35.465071 -115.581413 226 25028ft 327kts
25-Mar-20 21:16 35.403299 -115.664724 226 25877ft 330kts
25-Mar-20 21:17 35.341173 -115.748471 226 25890ft 327kts
25-Mar-20 21:18 35.279328 -115.831475 226 25910ft 327kts
25-Mar-20 21:19 35.217152 -115.913934 224 25924ft 326kts
25-Mar-20 21:20 35.153385 -115.994228 225 25926ft 326kts
25-Mar-20 21:21 35.089562 -116.074678 225 25928ft 326kts
25-Mar-20 21:22 35.025819 -116.154856 225 25924ft 327kts
25-Mar-20 21:23 34.962693 -116.234083 226 25964ft 311kts
25-Mar-20 21:24 34.901254 -116.311021 227 25952ft 318kts
25-Mar-20 21:25 34.838943 -116.389470 228 25125ft 330kts
25-Mar-20 21:26 34.777815 -116.467257 228 22654ft 317kts
25-Mar-20 21:27 34.716993 -116.544583 228 20152ft 310kts
25-Mar-20 21:28 34.651619 -116.615534 221 19585ft 320kts
25-Mar-20 21:29 34.583225 -116.682490 221 18153ft 312kts
25-Mar-20 21:30 34.515639 -116.748599 220 17147ft 313kts
25-Mar-20 21:31 34.452329 -116.819918 225 15853ft 311kts
25-Mar-20 21:32 34.391043 -116.891092 225 14349ft 311kts
25-Mar-20 21:33 34.328863 -116.963060 224 13105ft 311kts
25-Mar-20 21:34 34.266512 -117.033640 216 12945ft 313kts
25-Mar-20 21:35 34.192080 -117.087729 212 12256ft 315kts
25-Mar-20 21:36 34.115559 -117.132518 206 11985ft 301kts
25-Mar-20 21:37 34.048268 -117.168507 206 11965ft 246kts
25-Mar-20 21:38 33.989192 -117.206507 229 11802ft 246kts
25-Mar-20 21:39 33.946302 -117.266526 230 10562ft 239kts
25-Mar-20 21:40 33.906313 -117.322966 230 9349ft 235kts
25-Mar-20 21:41 33.864182 -117.382211 230 8067ft 229kts
25-Mar-20 21:42 33.822503 -117.441009 231 7966ft 231kts
25-Mar-20 21:43 33.798135 -117.512318 260 7963ft 231kts
25-Mar-20 21:44 33.819438 -117.584539 292 6880ft 225kts
25-Mar-20 21:45 33.844250 -117.650316 291 5656ft 197kts
25-Mar-20 21:46 33.865186 -117.707799 291 4423ft 186kts
25-Mar-20 21:47 33.847823 -117.759074 216 2976ft 180kts
25-Mar-20 21:48 33.805381 -117.786986 208 2483ft 173kts
25-Mar-20 21:49 33.763465 -117.813206 209 1920ft 169kts
25-Mar-20 21:50 33.724585 -117.837871 209 1041ft 153kts
25-Mar-20 21:51 33.687635 -117.861244 209 243ft 144kts
25-Mar-20 21:52 33.669647 -117.872122 149 63ft 14kts
25-Mar-20 21:53 33.669122 -117.871506 123 63ft 2kts
25-Mar-20 21:54 33.669000 -117.871068 78 63ft 4kts
25-Mar-20 21:55 33.672069 -117.868166 30 63ft 17kts
25-Mar-20 21:56 33.675015 -117.865096 118 63ft 2kts
25-Mar-20 21:57 33.675012 -117.865091 118 63ft 0kts
25-Mar-20 21:58 33.675012 -117.865091 118 63ft 0kts
25-Mar-20 21:59 33.675012 -117.865091 118 63ft 0kts

Navigation Log

Ident Type
Flight plan parsing failed, navigation log unavailable